Time;durP1;ratioP1;P1;durP2;ratioP2;P2;SDS_P1;SDS_P2;PMS_P1;PMS_P2;Temp;Humidity;BMP_temperature;BMP_pressure;BME280_temperature;BME280_humidity;BME280_pressure;Samples;Min_cycle;Max_cycle;Signal;HPM_P1;HPM_P2
2022/08/05 00:01:13;;;;;;;3.20;2.77;;;25.30;63.40;;;;;;5097192;28;20455;-71
2022/08/05 00:03:40;;;;;;;4.10;2.60;;;25.20;63.40;;;;;;5097420;28;20471;-71
2022/08/05 00:06:07;;;;;;;7.80;3.10;;;25.20;63.80;;;;;;5097029;28;20444;-71
2022/08/05 00:08:35;;;;;;;5.47;3.10;;;25.20;63.90;;;;;;5098181;28;20432;-71
2022/08/05 00:11:06;;;;;;;5.03;2.70;;;25.10;64.10;;;;;;5096244;28;21047;-71
2022/08/05 00:13:34;;;;;;;6.13;3.40;;;25.10;64.30;;;;;;5097449;28;20517;-71
2022/08/05 00:16:01;;;;;;;3.27;2.80;;;25.00;64.50;;;;;;5097149;28;20448;-71
2022/08/05 00:18:28;;;;;;;5.30;3.73;;;25.00;64.80;;;;;;5096757;28;20451;-71
2022/08/05 00:20:55;;;;;;;5.70;3.53;;;24.90;64.90;;;;;;5096226;28;20538;-71
2022/08/05 00:23:23;;;;;;;7.40;3.43;;;24.90;65.10;;;;;;5096004;28;20498;-71
2022/08/05 00:25:50;;;;;;;4.10;3.00;;;24.90;65.20;;;;;;5096768;28;20455;-71
2022/08/05 00:28:19;;;;;;;6.23;3.60;;;24.80;65.10;;;;;;5096789;28;20448;-71
2022/08/05 00:30:46;;;;;;;4.20;3.00;;;24.80;65.30;;;;;;5096998;28;20847;-71
2022/08/05 00:33:13;;;;;;;5.60;3.47;;;24.70;65.40;;;;;;5097581;28;20468;-71
2022/08/05 00:35:39;;;;;;;3.80;3.33;;;24.60;65.50;;;;;;5096657;28;20444;-71
2022/08/05 00:38:06;;;;;;;5.27;3.63;;;24.60;66.00;;;;;;5096502;28;20443;-71
2022/08/05 00:40:33;;;;;;;4.53;2.70;;;24.50;66.30;;;;;;5097836;28;20885;-71
2022/08/05 00:43:02;;;;;;;3.43;3.13;;;24.50;66.60;;;;;;5097309;28;20476;-72
2022/08/05 00:45:30;;;;;;;6.27;3.97;;;24.40;66.90;;;;;;5097195;28;20452;-71
2022/08/05 00:47:57;;;;;;;5.07;3.53;;;24.40;67.20;;;;;;5096642;28;20451;-71
2022/08/05 00:50:26;;;;;;;5.77;3.57;;;24.30;67.50;;;;;;5096278;28;20464;-71
2022/08/05 00:52:52;;;;;;;4.40;3.67;;;24.20;68.00;;;;;;5096900;28;20495;-71
2022/08/05 00:55:19;;;;;;;8.27;4.20;;;24.10;68.60;;;;;;5095776;28;20963;-72
2022/08/05 00:57:46;;;;;;;6.70;4.07;;;24.00;69.30;;;;;;5096741;28;20451;-71
2022/08/05 01:00:13;;;;;;;4.77;4.23;;;23.90;69.90;;;;;;5096600;28;20444;-71
2022/08/05 01:02:41;;;;;;;4.73;4.23;;;23.80;70.50;;;;;;5096299;28;20455;-71
2022/08/05 01:05:08;;;;;;;5.83;4.57;;;23.80;71.50;;;;;;5096001;28;20452;-71
2022/08/05 01:07:35;;;;;;;11.70;5.20;;;23.70;72.20;;;;;;5096441;28;20459;-71
2022/08/05 01:10:03;;;;;;;8.13;5.10;;;23.50;72.80;;;;;;5096319;28;20480;-72
2022/08/05 01:12:30;;;;;;;5.30;4.37;;;23.50;73.80;;;;;;5096018;28;20460;-71
2022/08/05 01:15:03;;;;;;;7.47;4.77;;;23.50;74.20;;;;;;5095949;28;20439;-71
2022/08/05 01:17:38;;;;;;;6.23;4.53;;;23.40;74.60;;;;;;5095753;28;20443;-71
2022/08/05 01:20:19;;;;;;;11.00;4.57;;;23.40;75.10;;;;;;5095178;28;20430;-71
2022/08/05 01:23:01;;;;;;;4.40;4.07;;;23.40;75.20;;;;;;5095596;28;20511;-71
2022/08/05 01:25:44;;;;;;;4.13;3.73;;;23.50;75.40;;;;;;5095554;28;20801;-71
2022/08/05 01:28:23;;;;;;;5.73;3.40;;;23.40;75.20;;;;;;5095530;28;20432;-71
2022/08/05 01:30:54;;;;;;;5.90;4.40;;;23.40;75.40;;;;;;5094295;28;20841;-71
2022/08/05 01:33:28;;;;;;;6.20;4.40;;;23.30;75.90;;;;;;5094667;28;20475;-71
2022/08/05 01:35:56;;;;;;;4.17;3.80;;;23.20;76.70;;;;;;5094380;28;20933;-72
2022/08/05 01:38:25;;;;;;;8.47;5.10;;;23.20;77.10;;;;;;5094755;28;20452;-72
2022/08/05 01:40:54;;;;;;;7.87;4.70;;;23.20;77.30;;;;;;5094171;28;20952;-72
2022/08/05 01:43:24;;;;;;;6.57;4.93;;;23.10;78.00;;;;;;5094293;28;20475;-71
2022/08/05 01:45:52;;;;;;;6.50;4.40;;;23.00;78.90;;;;;;5094614;28;20475;-71
2022/08/05 01:48:20;;;;;;;6.73;5.50;;;23.00;79.70;;;;;;5094233;28;20870;-71
2022/08/05 01:50:47;;;;;;;6.47;4.60;;;22.80;80.60;;;;;;5094371;28;20479;-71
2022/08/05 01:53:16;;;;;;;6.00;5.50;;;22.70;81.40;;;;;;5094710;28;20468;-71
2022/08/05 01:55:45;;;;;;;7.27;6.00;;;22.60;82.40;;;;;;5094443;28;20455;-71
2022/08/05 01:58:14;;;;;;;6.60;5.10;;;22.60;83.00;;;;;;5094701;28;20452;-71
2022/08/05 02:00:45;;;;;;;6.83;5.13;;;22.50;83.50;;;;;;5095854;28;20450;-69
2022/08/05 02:03:17;;;;;;;6.90;5.60;;;22.50;83.80;;;;;;5107872;28;20464;-67
2022/08/05 02:05:46;;;;;;;12.40;6.23;;;22.50;84.80;;;;;;5110299;28;20425;-67
2022/08/05 02:08:13;;;;;;;7.00;5.70;;;22.40;86.30;;;;;;5108435;28;20428;-67
2022/08/05 02:10:43;;;;;;;9.33;6.00;;;22.40;87.70;;;;;;5107275;28;20487;-68
2022/08/05 02:13:14;;;;;;;7.57;5.87;;;22.30;88.30;;;;;;5103367;28;20471;-68
2022/08/05 02:15:47;;;;;;;6.30;5.70;;;22.20;89.20;;;;;;5088264;28;20470;-68
2022/08/05 02:18:20;;;;;;;8.20;6.20;;;22.20;89.70;;;;;;5105397;28;20430;-68
2022/08/05 02:20:52;;;;;;;7.23;5.77;;;22.20;90.20;;;;;;5101239;28;20508;-68
2022/08/05 02:23:22;;;;;;;8.90;5.60;;;22.20;90.40;;;;;;5099731;28;20471;-68
2022/08/05 02:25:51;;;;;;;5.40;4.93;;;22.20;90.60;;;;;;5095849;28;20818;-69
2022/08/05 02:28:24;;;;;;;7.50;5.67;;;22.10;90.90;;;;;;5095247;28;20444;-69
2022/08/05 02:30:56;;;;;;;5.80;5.20;;;22.10;91.30;;;;;;5095802;28;20513;-69
2022/08/05 02:33:25;;;;;;;6.30;5.47;;;22.00;91.60;;;;;;5098658;28;20464;-69
2022/08/05 02:35:55;;;;;;;6.70;6.10;;;22.00;91.90;;;;;;5101918;28;20442;-68
2022/08/05 02:38:23;;;;;;;8.73;5.70;;;22.10;91.80;;;;;;5111297;28;20785;-68
2022/08/05 02:40:51;;;;;;;8.40;5.03;;;22.20;91.80;;;;;;5113273;28;20432;-67
2022/08/05 02:43:19;;;;;;;6.03;5.27;;;22.30;91.70;;;;;;5112760;28;20467;-67
2022/08/05 02:45:47;;;;;;;5.97;4.77;;;22.40;91.70;;;;;;5112108;28;20462;-68
2022/08/05 02:48:17;;;;;;;9.00;5.80;;;22.40;91.30;;;;;;5111243;28;20440;-68
2022/08/05 02:50:49;;;;;;;9.80;4.93;;;22.50;91.20;;;;;;5111723;28;20578;-68
2022/08/05 02:53:17;;;;;;;7.50;5.53;;;22.60;90.90;;;;;;5110508;28;20470;-67
2022/08/05 02:55:46;;;;;;;5.77;4.47;;;22.70;90.50;;;;;;5110962;28;20459;-67
2022/08/05 02:58:15;;;;;;;6.47;5.40;;;22.70;90.40;;;;;;5111380;28;20463;-68
2022/08/05 03:00:43;;;;;;;5.40;4.90;;;22.80;90.40;;;;;;5092649;28;20451;-68
2022/08/05 03:03:12;;;;;;;5.93;5.37;;;22.90;90.00;;;;;;5106527;28;20464;-68
2022/08/05 03:05:41;;;;;;;7.07;4.73;;;22.90;89.80;;;;;;5101034;28;20455;-69
2022/08/05 03:08:09;;;;;;;6.40;5.70;;;22.90;88.90;;;;;;5099063;28;20452;-70
2022/08/05 03:10:36;;;;;;;6.30;5.70;;;23.00;89.40;;;;;;5098699;28;20482;-70
2022/08/05 03:13:11;;;;;;;6.03;5.53;;;23.00;89.60;;;;;;5097613;28;20494;-69
2022/08/05 03:15:38;;;;;;;6.90;6.23;;;23.00;89.20;;;;;;5098067;28;20818;-70
2022/08/05 03:18:05;;;;;;;7.23;6.10;;;23.10;89.80;;;;;;5097677;28;20450;-70
2022/08/05 03:20:32;;;;;;;7.47;6.77;;;23.10;89.20;;;;;;5097416;28;20979;-70
2022/08/05 03:23:00;;;;;;;7.47;6.77;;;23.10;89.60;;;;;;5097615;28;20472;-71
2022/08/05 03:25:28;;;;;;;7.80;7.00;;;23.10;89.80;;;;;;5097456;28;20451;-71
2022/08/05 03:27:58;;;;;;;9.47;7.57;;;23.00;90.00;;;;;;5097219;28;20455;-71
2022/08/05 03:30:27;;;;;;;8.43;7.13;;;22.90;90.20;;;;;;5096661;28;20472;-70
2022/08/05 03:32:54;;;;;;;7.10;6.47;;;22.90;90.40;;;;;;5096500;28;20471;-70
2022/08/05 03:35:22;;;;;;;11.73;8.17;;;22.80;90.50;;;;;;5096525;28;20538;-70
2022/08/05 03:37:50;;;;;;;8.30;7.47;;;22.70;90.70;;;;;;5095917;28;20454;-71
2022/08/05 03:40:18;;;;;;;8.57;7.67;;;22.60;91.10;;;;;;5096635;28;20446;-71
2022/08/05 03:42:45;;;;;;;8.60;7.90;;;22.50;91.50;;;;;;5096190;28;20452;-70
2022/08/05 03:45:12;;;;;;;8.43;7.73;;;22.40;91.80;;;;;;5097867;28;20779;-71
2022/08/05 03:47:38;;;;;;;8.60;7.80;;;22.20;92.30;;;;;;5096756;28;20444;-71
2022/08/05 03:50:05;;;;;;;8.43;7.20;;;22.20;92.20;;;;;;5096673;28;20487;-71
2022/08/05 03:52:37;;;;;;;8.60;7.80;;;22.20;92.40;;;;;;5096102;28;20988;-70
2022/08/05 03:55:09;;;;;;;9.03;7.93;;;22.20;92.60;;;;;;5096421;28;20455;-71
2022/08/05 03:57:40;;;;;;;8.30;6.70;;;22.20;92.60;;;;;;5096276;28;20444;-71
2022/08/05 04:00:10;;;;;;;8.30;7.60;;;22.30;92.70;;;;;;5096749;28;20428;-71
2022/08/05 04:02:38;;;;;;;8.67;7.97;;;22.40;92.70;;;;;;5095867;28;20444;-71
2022/08/05 04:05:08;;;;;;;8.73;7.83;;;22.40;92.70;;;;;;5096715;28;20455;-70
2022/08/05 04:07:35;;;;;;;9.10;8.37;;;22.50;92.60;;;;;;5096333;28;20956;-70
2022/08/05 04:10:03;;;;;;;8.73;7.80;;;22.50;92.60;;;;;;5096933;28;20549;-70
2022/08/05 04:12:30;;;;;;;8.70;7.80;;;22.50;92.50;;;;;;5096917;28;20448;-69
2022/08/05 04:14:59;;;;;;;7.87;7.10;;;22.40;92.50;;;;;;5098134;28;20988;-69
2022/08/05 04:17:26;;;;;;;9.97;8.63;;;22.50;92.60;;;;;;5101417;28;20451;-69
2022/08/05 04:19:53;;;;;;;11.10;8.80;;;22.50;92.70;;;;;;5101359;28;20448;-68
2022/08/05 04:22:20;;;;;;;8.90;8.10;;;22.50;92.70;;;;;;5100466;28;20437;-68
2022/08/05 04:24:47;;;;;;;10.97;9.87;;;22.40;92.90;;;;;;5098174;28;20478;-69
2022/08/05 04:27:14;;;;;;;9.80;8.80;;;22.40;93.20;;;;;;5097340;28;20444;-68
2022/08/05 04:29:41;;;;;;;9.83;9.03;;;22.30;93.20;;;;;;5098213;28;20443;-68
2022/08/05 04:32:10;;;;;;;8.30;7.47;;;22.30;93.40;;;;;;5097469;28;20453;-69
2022/08/05 04:34:37;;;;;;;11.47;10.37;;;22.20;93.50;;;;;;5096922;28;20471;-69
2022/08/05 04:37:04;;;;;;;15.53;14.03;;;22.30;93.50;;;;;;5097173;28;20459;-69
2022/08/05 04:39:32;;;;;;;12.77;11.57;;;22.30;93.50;;;;;;5098336;28;20470;-69
2022/08/05 04:41:59;;;;;;;14.70;13.47;;;22.30;93.40;;;;;;5098489;28;20451;-69
2022/08/05 04:44:26;;;;;;;15.70;13.50;;;22.30;93.50;;;;;;5103072;28;20476;-69
2022/08/05 04:46:52;;;;;;;15.00;13.60;;;22.30;93.50;;;;;;5105179;28;20452;-70
2022/08/05 04:49:20;;;;;;;13.83;12.63;;;22.40;93.20;;;;;;5105081;28;20448;-70
2022/08/05 04:51:47;;;;;;;13.60;12.40;;;22.40;93.20;;;;;;5106211;28;20476;-69
2022/08/05 04:54:14;;;;;;;14.83;13.37;;;22.50;93.30;;;;;;5106327;28;20464;-70
2022/08/05 04:56:41;;;;;;;10.20;9.30;;;22.50;93.00;;;;;;5105849;28;20447;-70
2022/08/05 04:59:08;;;;;;;13.07;11.83;;;22.60;92.70;;;;;;5103180;28;20444;-70
2022/08/05 05:01:34;;;;;;;15.00;13.60;;;22.70;92.80;;;;;;5113168;28;20505;-69
2022/08/05 05:04:01;;;;;;;14.40;13.10;;;22.70;92.60;;;;;;5116098;28;20470;-70
2022/08/05 05:06:29;;;;;;;15.97;14.50;;;22.70;92.70;;;;;;5116852;28;20549;-69
2022/08/05 05:08:56;;;;;;;16.10;14.50;;;22.70;92.60;;;;;;5116844;28;20440;-69
2022/08/05 05:11:23;;;;;;;17.13;15.63;;;22.70;92.60;;;;;;5098267;28;20479;-70
2022/08/05 05:13:49;;;;;;;18.97;17.13;;;22.70;92.80;;;;;;5094416;28;20479;-70
2022/08/05 05:16:17;;;;;;;19.50;16.50;;;22.60;92.80;;;;;;5094773;28;20808;-70
2022/08/05 05:18:43;;;;;;;18.67;16.97;;;22.60;92.80;;;;;;5095129;28;20464;-70
2022/08/05 05:21:10;;;;;;;19.10;17.20;;;22.50;92.90;;;;;;5094805;28;20448;-70
2022/08/05 05:23:38;;;;;;;19.53;17.73;;;22.40;93.10;;;;;;5094664;28;20468;-71
2022/08/05 05:26:05;;;;;;;19.20;17.33;;;22.40;93.50;;;;;;5093942;28;20959;-71
2022/08/05 05:28:32;;;;;;;18.30;16.60;;;22.30;93.60;;;;;;5094419;28;20949;-70
2022/08/05 05:30:59;;;;;;;19.50;17.67;;;22.30;93.60;;;;;;5094465;28;20491;-70
2022/08/05 05:33:26;;;;;;;18.40;16.50;;;22.30;93.70;;;;;;5094197;28;20468;-70
2022/08/05 05:35:52;;;;;;;21.63;19.63;;;22.40;93.70;;;;;;5094676;28;20454;-70
2022/08/05 05:38:20;;;;;;;22.93;20.53;;;22.40;93.70;;;;;;5094715;28;20452;-71
2022/08/05 05:40:48;;;;;;;23.10;20.67;;;22.40;93.70;;;;;;5094434;28;20461;-70
2022/08/05 05:43:15;;;;;;;21.77;19.70;;;22.40;93.60;;;;;;5094022;28;20468;-70
2022/08/05 05:45:41;;;;;;;21.27;19.10;;;22.40;93.60;;;;;;5094135;28;20532;-70
2022/08/05 05:48:08;;;;;;;21.93;19.67;;;22.30;93.70;;;;;;5093629;28;20940;-70
2022/08/05 05:50:38;;;;;;;20.80;18.90;;;22.30;93.80;;;;;;5094046;28;20536;-70
2022/08/05 05:53:05;;;;;;;21.17;19.17;;;22.40;94.20;;;;;;5094205;28;20894;-70
2022/08/05 05:55:32;;;;;;;21.00;18.87;;;22.30;93.70;;;;;;5094569;28;20452;-70
2022/08/05 05:58:00;;;;;;;21.23;18.97;;;22.30;93.60;;;;;;5094625;28;20463;-70
2022/08/05 06:00:27;;;;;;;18.77;16.77;;;22.30;93.70;;;;;;5094035;28;20448;-70
2022/08/05 06:02:55;;;;;;;19.43;17.67;;;22.30;93.70;;;;;;5093844;28;20463;-70
2022/08/05 06:05:21;;;;;;;18.87;16.87;;;22.30;93.70;;;;;;5094037;28;20447;-70
2022/08/05 06:07:49;;;;;;;17.50;15.97;;;22.20;93.60;;;;;;5098325;28;20447;-70
2022/08/05 06:10:17;;;;;;;17.70;15.77;;;22.20;93.80;;;;;;5097950;28;20497;-70
2022/08/05 06:12:43;;;;;;;20.03;17.83;;;22.20;93.90;;;;;;5098099;28;20968;-71
2022/08/05 06:15:12;;;;;;;18.70;16.83;;;22.30;93.80;;;;;;5097398;28;20455;-71
2022/08/05 06:17:39;;;;;;;17.30;15.70;;;22.30;93.80;;;;;;5098131;28;20443;-71
2022/08/05 06:20:07;;;;;;;18.33;16.33;;;22.30;93.70;;;;;;5097774;28;20447;-70
2022/08/05 06:22:34;;;;;;;17.93;16.33;;;22.30;93.70;;;;;;5097724;28;20448;-70
2022/08/05 06:25:01;;;;;;;20.73;18.10;;;22.30;93.80;;;;;;5097805;28;20463;-70
2022/08/05 06:27:28;;;;;;;17.00;15.43;;;22.20;93.80;;;;;;5097800;28;20455;-70
2022/08/05 06:29:55;;;;;;;17.17;15.43;;;22.10;93.60;;;;;;5097816;28;20444;-71
2022/08/05 06:32:23;;;;;;;13.37;12.10;;;22.00;93.50;;;;;;5097529;28;20491;-71
2022/08/05 06:34:50;;;;;;;16.67;14.53;;;21.90;93.60;;;;;;5079224;28;20987;-70
2022/08/05 06:37:17;;;;;;;15.10;13.57;;;21.90;93.60;;;;;;5097466;28;20456;-71
2022/08/05 06:39:44;;;;;;;14.60;13.30;;;21.90;93.20;;;;;;5097785;28;20447;-71
2022/08/05 06:42:12;;;;;;;18.50;14.57;;;21.80;93.30;;;;;;5097470;28;20844;-71
2022/08/05 06:44:39;;;;;;;14.83;13.50;;;21.70;93.30;;;;;;5097379;28;20229;-70
2022/08/05 06:47:06;;;;;;;16.20;13.60;;;21.70;93.50;;;;;;5097958;28;20447;-70
2022/08/05 06:49:34;;;;;;;16.40;13.43;;;21.70;93.40;;;;;;5098080;28;20456;-70
2022/08/05 06:52:00;;;;;;;17.53;14.80;;;21.80;93.30;;;;;;5097798;28;20476;-71
2022/08/05 06:54:27;;;;;;;15.80;14.03;;;21.80;93.00;;;;;;5097812;28;20483;-71
2022/08/05 06:56:54;;;;;;;14.77;12.73;;;21.90;92.90;;;;;;5097580;28;20459;-71
2022/08/05 06:59:20;;;;;;;14.93;13.33;;;21.90;92.80;;;;;;5097210;28;20849;-71
2022/08/05 07:01:47;;;;;;;13.27;11.67;;;22.00;92.70;;;;;;5097207;28;20451;-70
2022/08/05 07:04:14;;;;;;;11.70;10.50;;;22.00;92.30;;;;;;5097423;28;20460;-70
2022/08/05 07:06:42;;;;;;;10.57;9.53;;;22.10;92.20;;;;;;5096906;28;20931;-70
2022/08/05 07:09:09;;;;;;;10.93;9.43;;;22.10;92.00;;;;;;5096912;28;20452;-71
2022/08/05 07:11:36;;;;;;;10.47;8.43;;;22.20;91.90;;;;;;5097216;28;20476;-71
2022/08/05 07:16:50;;;;;;;9.70;7.17;;;22.30;91.70;;;;;;5095989;28;20466;-71
2022/08/05 07:19:21;;;;;;;9.20;6.30;;;22.30;91.40;;;;;;5095770;28;20464;-71
2022/08/05 07:21:50;;;;;;;11.07;6.83;;;22.20;91.10;;;;;;5096941;28;20424;-71
2022/08/05 07:24:17;;;;;;;8.67;6.43;;;22.10;90.90;;;;;;5096214;28;20463;-71
2022/08/05 07:26:45;;;;;;;8.03;5.93;;;22.10;90.90;;;;;;5096644;28;20452;-71
2022/08/05 07:29:12;;;;;;;7.00;6.33;;;22.10;90.90;;;;;;5096450;28;20428;-70
2022/08/05 07:31:39;;;;;;;7.37;6.17;;;22.00;90.80;;;;;;5096426;28;20484;-70
2022/08/05 07:34:06;;;;;;;8.83;6.10;;;21.90;90.80;;;;;;5096494;28;20476;-70
2022/08/05 07:36:33;;;;;;;7.40;6.00;;;21.90;91.00;;;;;;5096012;28;20909;-70
2022/08/05 07:39:03;;;;;;;9.57;6.70;;;21.80;91.10;;;;;;5096460;28;20471;-70
2022/08/05 07:41:30;;;;;;;8.33;6.07;;;21.70;91.10;;;;;;5096467;28;20435;-70
2022/08/05 07:43:58;;;;;;;7.90;7.20;;;21.70;91.30;;;;;;5096264;28;20487;-70
2022/08/05 07:46:26;;;;;;;9.23;7.17;;;21.60;91.30;;;;;;5096111;28;20452;-71
2022/08/05 07:48:53;;;;;;;8.90;6.90;;;21.50;91.60;;;;;;5096092;28;20475;-71
2022/08/05 07:51:20;;;;;;;8.80;6.30;;;21.50;91.70;;;;;;5096224;28;20475;-71
2022/08/05 07:53:47;;;;;;;8.63;6.10;;;21.40;91.90;;;;;;5096466;28;20468;-71
2022/08/05 07:56:15;;;;;;;7.57;6.37;;;21.40;91.90;;;;;;5096517;28;20450;-71
2022/08/05 07:58:42;;;;;;;10.03;6.83;;;21.30;91.70;;;;;;5096540;28;20452;-71
2022/08/05 08:01:09;;;;;;;7.00;5.80;;;21.30;91.80;;;;;;5096789;28;20448;-71
2022/08/05 08:03:36;;;;;;;6.27;5.70;;;21.40;91.90;;;;;;5095921;28;20875;-71
2022/08/05 08:06:02;;;;;;;6.40;5.77;;;21.40;91.60;;;;;;5095761;28;20452;-71
2022/08/05 08:08:29;;;;;;;7.90;4.63;;;21.40;91.40;;;;;;5096077;28;20453;-71
2022/08/05 08:10:56;;;;;;;10.70;5.40;;;21.30;91.20;;;;;;5095766;28;20944;-71
2022/08/05 08:13:24;;;;;;;8.40;4.40;;;21.30;91.40;;;;;;5095798;28;20484;-71
2022/08/05 08:15:51;;;;;;;6.33;4.60;;;21.20;91.40;;;;;;5096221;28;20444;-71
2022/08/05 08:18:18;;;;;;;4.27;3.90;;;21.30;91.40;;;;;;5096317;28;20444;-71
2022/08/05 08:20:45;;;;;;;5.33;4.57;;;21.30;91.20;;;;;;5096007;28;20451;-72
2022/08/05 08:23:11;;;;;;;5.67;4.17;;;21.30;91.40;;;;;;5096105;28;20491;-71
2022/08/05 08:25:38;;;;;;;5.67;4.13;;;21.30;91.30;;;;;;5096001;28;20505;-71
2022/08/05 08:28:05;;;;;;;5.63;3.83;;;21.40;91.40;;;;;;5095902;28;20455;-72
2022/08/05 08:30:33;;;;;;;8.07;3.43;;;21.50;91.40;;;;;;5095417;28;20525;-70
2022/08/05 08:33:00;;;;;;;6.07;4.17;;;21.60;91.10;;;;;;5095910;28;20491;-71
2022/08/05 08:35:27;;;;;;;5.97;4.20;;;21.70;90.80;;;;;;5095330;28;20452;-71
2022/08/05 08:37:54;;;;;;;6.30;3.93;;;21.70;90.60;;;;;;5095583;28;20458;-71
2022/08/05 08:40:20;;;;;;;6.23;3.83;;;21.80;90.60;;;;;;5095370;28;20471;-71
2022/08/05 08:42:52;;;;;;;6.50;4.00;;;21.80;90.30;;;;;;5095338;28;20830;-71
2022/08/05 08:45:21;;;;;;;5.07;3.50;;;21.80;90.00;;;;;;5095270;28;20448;-72
2022/08/05 08:47:51;;;;;;;4.83;3.90;;;21.70;90.00;;;;;;5094330;28;20471;-72
2022/08/05 08:50:20;;;;;;;6.70;4.20;;;21.70;90.20;;;;;;5094052;28;20920;-72
2022/08/05 08:52:52;;;;;;;5.10;3.87;;;21.80;90.30;;;;;;5093938;28;20483;-72
2022/08/05 08:55:20;;;;;;;5.10;3.80;;;21.80;90.00;;;;;;5093936;28;20428;-72
2022/08/05 08:57:48;;;;;;;3.83;3.37;;;21.80;90.00;;;;;;5093808;28;20822;-72
2022/08/05 09:00:15;;;;;;;5.23;4.00;;;21.80;90.00;;;;;;5094210;28;20490;-72
2022/08/05 09:02:44;;;;;;;5.97;3.93;;;21.90;90.00;;;;;;5094206;28;20479;-72
2022/08/05 09:05:13;;;;;;;6.03;3.97;;;22.10;90.20;;;;;;5094081;28;20568;-72
2022/08/05 09:07:40;;;;;;;7.30;3.10;;;22.20;90.00;;;;;;5094146;28;20450;-72
2022/08/05 09:10:07;;;;;;;3.70;3.40;;;22.30;89.30;;;;;;5093911;28;20428;-72
2022/08/05 09:12:34;;;;;;;5.97;4.13;;;22.40;88.50;;;;;;5093640;28;20488;-72
2022/08/05 09:15:02;;;;;;;4.40;3.67;;;22.40;87.60;;;;;;5094044;28;20784;-72
2022/08/05 09:17:30;;;;;;;7.23;3.90;;;22.50;87.80;;;;;;5093472;28;20960;-72
2022/08/05 09:19:58;;;;;;;5.43;3.97;;;22.60;88.00;;;;;;5093532;28;20444;-73
2022/08/05 09:22:26;;;;;;;8.07;4.20;;;22.70;87.70;;;;;;5093417;28;20452;-73
2022/08/05 09:25:00;;;;;;;6.60;4.40;;;22.80;86.90;;;;;;5093742;28;20564;-73
2022/08/05 09:27:33;;;;;;;6.13;4.30;;;22.90;86.70;;;;;;5093759;28;20451;-72
2022/08/05 09:30:00;;;;;;;5.17;4.23;;;22.90;86.40;;;;;;5093490;28;20905;-72
2022/08/05 09:32:35;;;;;;;5.07;3.50;;;22.90;86.10;;;;;;5093624;28;20566;-72
2022/08/05 09:35:11;;;;;;;6.60;4.10;;;22.90;85.60;;;;;;5093616;28;20485;-72
2022/08/05 09:37:49;;;;;;;7.00;4.37;;;22.90;85.60;;;;;;5093692;28;20432;-72
2022/08/05 09:40:31;;;;;;;4.80;4.00;;;22.90;85.80;;;;;;5092980;28;20436;-72
2022/08/05 09:42:57;;;;;;;8.17;4.00;;;22.80;85.20;;;;;;5093427;28;20468;-72
2022/08/05 09:45:35;;;;;;;4.70;3.53;;;22.80;85.00;;;;;;5093771;28;20428;-73
2022/08/05 09:48:24;;;;;;;6.30;4.53;;;22.70;84.60;;;;;;5093532;28;20436;-73
2022/08/05 09:50:52;;;;;;;6.23;4.37;;;22.60;84.90;;;;;;5093449;28;20425;-72
2022/08/05 09:53:20;;;;;;;5.33;4.23;;;22.60;85.90;;;;;;5093225;28;20499;-72
2022/08/05 09:55:52;;;;;;;11.13;4.30;;;22.70;84.70;;;;;;5093600;28;20466;-73
2022/08/05 09:58:19;;;;;;;5.13;4.10;;;22.80;85.80;;;;;;5093340;28;20444;-73
2022/08/05 10:00:57;;;;;;;8.30;3.77;;;22.90;85.10;;;;;;5093100;28;21013;-73
2022/08/05 10:03:24;;;;;;;7.10;3.83;;;23.00;84.40;;;;;;5093102;28;20460;-72
2022/08/05 10:06:06;;;;;;;6.67;3.73;;;23.10;83.70;;;;;;5093484;28;20455;-72
2022/08/05 10:08:35;;;;;;;4.27;3.37;;;23.30;83.40;;;;;;5093419;28;20478;-72
2022/08/05 10:11:05;;;;;;;4.87;2.97;;;23.50;81.30;;;;;;5093008;28;20851;-72
2022/08/05 10:13:36;;;;;;;5.10;3.00;;;23.50;80.30;;;;;;5092813;28;20495;-72
2022/08/05 10:16:03;;;;;;;6.70;3.47;;;23.70;80.30;;;;;;5093041;28;20440;-72
2022/08/05 10:18:32;;;;;;;4.60;3.37;;;24.00;80.10;;;;;;5093201;28;20443;-72
2022/08/05 10:21:01;;;;;;;5.17;3.90;;;24.20;77.60;;;;;;5092920;28;21013;-72
2022/08/05 10:23:30;;;;;;;5.80;3.27;;;24.40;75.60;;;;;;5092974;28;20468;-72
2022/08/05 10:26:00;;;;;;;4.93;3.40;;;24.50;75.00;;;;;;5093291;28;20432;-72
2022/08/05 10:28:27;;;;;;;5.77;3.00;;;24.70;74.80;;;;;;5093206;28;20455;-72
2022/08/05 10:30:55;;;;;;;4.63;3.23;;;25.00;74.50;;;;;;5093180;28;20480;-72
2022/08/05 10:33:24;;;;;;;3.43;1.87;;;25.30;72.70;;;;;;5093012;28;20492;-72
2022/08/05 10:35:52;;;;;;;3.20;1.80;;;25.80;72.10;;;;;;5093013;28;20448;-72
2022/08/05 10:38:20;;;;;;;3.43;2.17;;;26.40;67.50;;;;;;5093065;28;20455;-73
2022/08/05 10:40:58;;;;;;;3.60;2.10;;;27.20;64.50;;;;;;5093062;28;20487;-73
2022/08/05 10:43:36;;;;;;;2.27;1.90;;;27.90;59.50;;;;;;5092759;28;20467;-73
2022/08/05 10:46:05;;;;;;;2.90;2.33;;;28.50;58.10;;;;;;5093231;28;20428;-73
2022/08/05 10:48:34;;;;;;;4.80;2.37;;;28.90;55.00;;;;;;5092825;28;20444;-73
2022/08/05 10:51:06;;;;;;;3.57;2.13;;;28.90;54.40;;;;;;5092808;28;20448;-73
2022/08/05 10:53:38;;;;;;;3.03;2.10;;;29.00;54.10;;;;;;5095774;28;20900;-73
2022/08/05 10:56:06;;;;;;;3.47;2.10;;;29.20;52.90;;;;;;5096213;28;20935;-73
2022/08/05 10:58:35;;;;;;;7.20;2.53;;;29.30;51.70;;;;;;5096098;28;20985;-73
2022/08/05 11:01:06;;;;;;;2.03;1.50;;;29.50;51.60;;;;;;5096316;28;20455;-72
2022/08/05 11:03:34;;;;;;;3.50;1.97;;;29.80;51.20;;;;;;5096539;28;20496;-73
2022/08/05 11:06:07;;;;;;;1.80;1.50;;;30.00;50.50;;;;;;5096498;28;20829;-74
2022/08/05 11:08:34;;;;;;;2.87;1.97;;;30.60;48.90;;;;;;5096379;28;20448;-73
2022/08/05 11:11:35;;;;;;;1.80;1.40;;;31.40;47.10;;;;;;5096033;28;21014;-73
2022/08/05 11:14:04;;;;;;;2.47;2.17;;;32.30;44.60;;;;;;5095777;28;20487;-73
2022/08/05 11:16:31;;;;;;;3.80;2.00;;;32.70;40.40;;;;;;5095744;28;20932;-73
2022/08/05 11:19:27;;;;;;;4.80;2.27;;;32.60;41.80;;;;;;5095638;28;20500;-73
2022/08/05 11:21:55;;;;;;;4.77;1.70;;;32.40;40.10;;;;;;5096142;28;20455;-73
2022/08/05 11:24:22;;;;;;;2.90;1.50;;;32.00;41.50;;;;;;5096147;28;20463;-73
2022/08/05 11:26:50;;;;;;;2.80;2.07;;;32.10;42.70;;;;;;5096069;28;20451;-73
2022/08/05 11:29:39;;;;;;;2.57;1.90;;;32.30;41.40;;;;;;5096413;28;20451;-73
2022/08/05 11:32:26;;;;;;;5.50;2.60;;;32.30;42.30;;;;;;5097362;28;20519;-73
2022/08/05 11:34:54;;;;;;;2.20;2.00;;;32.20;42.80;;;;;;5098429;28;20463;-73
2022/08/05 11:37:58;;;;;;;5.10;2.60;;;32.60;42.10;;;;;;5095903;28;20447;-73
2022/08/05 11:40:55;;;;;;;3.40;2.07;;;33.00;39.40;;;;;;5095346;28;20447;-74
2022/08/05 11:43:22;;;;;;;3.33;2.00;;;33.00;39.90;;;;;;5095253;28;20993;-73
2022/08/05 11:45:50;;;;;;;2.97;2.70;;;33.30;40.70;;;;;;5095303;28;20447;-73
2022/08/05 11:48:17;;;;;;;2.60;2.20;;;33.40;38.70;;;;;;5095435;28;20811;-73
2022/08/05 11:50:44;;;;;;;3.90;2.10;;;33.20;39.20;;;;;;5095475;28;20455;-73
2022/08/05 11:53:11;;;;;;;3.53;3.00;;;32.60;40.00;;;;;;5095246;28;20518;-73
2022/08/05 11:55:52;;;;;;;5.33;2.37;;;32.20;40.50;;;;;;5096325;28;20449;-72
2022/08/05 11:58:25;;;;;;;3.73;2.47;;;32.00;41.70;;;;;;5096801;28;20447;-72
2022/08/05 12:01:02;;;;;;;3.57;2.50;;;32.30;41.80;;;;;;5096009;28;20431;-72
2022/08/05 12:03:28;;;;;;;3.27;2.87;;;32.90;39.80;;;;;;5095700;28;20475;-72
2022/08/05 12:05:59;;;;;;;4.07;2.67;;;33.80;38.60;;;;;;5095941;28;20443;-72
2022/08/05 12:08:28;;;;;;;4.30;2.47;;;34.10;36.50;;;;;;5095891;28;20935;-72
2022/08/05 12:10:59;;;;;;;3.43;2.13;;;34.60;37.10;;;;;;5096242;28;20447;-72
2022/08/05 12:13:26;;;;;;;3.13;2.40;;;35.50;34.10;;;;;;5095347;28;20491;-72
2022/08/05 12:15:54;;;;;;;3.50;2.50;;;36.50;33.90;;;;;;5095886;28;20443;-72
2022/08/05 12:18:29;;;;;;;3.33;2.50;;;37.60;31.50;;;;;;5096303;28;20458;-72
2022/08/05 12:20:55;;;;;;;2.88;1.70;;;38.60;29.00;;;;;;5096196;28;20214;-72
2022/08/05 12:23:22;;;;;;;3.25;2.30;;;39.40;28.70;;;;;;5095649;28;20229;-72
2022/08/05 12:25:50;;;;;;;3.65;2.50;;;39.70;26.70;;;;;;5095909;28;20207;-72
2022/08/05 12:28:31;;;;;;;4.10;2.13;;;39.30;27.10;;;;;;5077859;28;20293;-72
2022/08/05 12:30:59;;;;;;;5.13;2.28;;;38.80;28.20;;;;;;5095623;28;20189;-72
2022/08/05 12:33:28;;;;;;;3.70;2.15;;;39.10;28.40;;;;;;5095090;28;20720;-72
2022/08/05 12:35:55;;;;;;;4.07;2.03;;;39.50;26.40;;;;;;5095647;28;20196;-72
2022/08/05 12:38:23;;;;;;;3.03;1.83;;;39.70;27.00;;;;;;5096249;28;20208;-72
2022/08/05 12:40:50;;;;;;;3.10;1.73;;;39.80;26.30;;;;;;5095470;28;20205;-72
2022/08/05 12:43:17;;;;;;;4.45;1.98;;;40.10;26.10;;;;;;5095521;28;20591;-72
2022/08/05 12:45:51;;;;;;;3.13;1.80;;;40.20;26.00;;;;;;5095111;28;20216;-72
2022/08/05 12:48:20;;;;;;;4.57;2.08;;;40.30;25.90;;;;;;5094884;28;20206;-72
2022/08/05 12:51:12;;;;;;;4.93;2.40;;;40.40;25.50;;;;;;5095262;28;20568;-72
2022/08/05 12:53:42;;;;;;;2.90;1.77;;;40.70;25.20;;;;;;5094559;28;20236;-72
2022/08/05 12:56:17;;;;;;;2.65;1.80;;;41.10;24.90;;;;;;5094589;28;20669;-72